Airfield :
LOGIN :

Register | Disclaimer

   EN    FR    IT 

 










Legend :    VFR   Marginal VFR   IFR   Intensive IFR   Very Intensive IFR
Visi :
Ceiling :
>= 8 km
>= 3000ft
5 to 8 km
1000 to 3000 ft
1500m to 5 km
500 to 1000 ft
800 to 1500m
200 to 500 ft
< 800m
< 200 ft
Symbols :   Thunderstorms  Fog  Heavy snow  Heavy precipitations  Wind > 20 kt
SIGMETs :     Misc.  Thunderstorms  Icing  Turbulence  Mountain Waves  Volcanic Ashes






- Airport Elevation : 255 ft


ENGC - Gullfaks C oil platform

CURRENT METAR :
  • 201750Z 26031KT 9999 FEW020 05/00 Q0984 W06/S6

EXPIRED METARs :
  • 201650Z 25028KT 9999 VCSH FEW020CB SCT025 05/00 Q0984 W06/S6
  • 201620Z 26029KT 9999 FEW020CB SCT030 05/00 Q0984 W06/S6

TAF TAF ENGC
Valid from the 20 at 18:00 until the 21 at 18:00 UTC


2018/2118 25030KT 9999 -SHRA FEW015TCU BKN030
TEMPO 2018/2105 SHRA BKN014CB
PROB30
TEMPO 2018/2022 4000 TSRAGS BKN010
BECMG 2019/2021 26040KT
BECMG 2106/2109 20050G60KT -RA
TEMPO 2107/2112 4000 RADZ BKN010
BECMG 2111/2113 24045KT



MET'MAP, your aeronautical weather chart ! - Copyright ORBIFLY December 2007 - Disclaimer

ORBIFLY MET'MAP TEAM :

Programming & Development : Alexandra Zaïnal
Concept & original design : Baudouin d'Aumeries
Assistance for programming : Marc-Olivier Méhu
Technical & hardware support : Manuel Goepfert

Contact : metmap@orbifly.com




SOURCES & CREDITS :

   NOAA